createdAt,value
2019-05-11T00:08:33.841Z,6.35
2019-05-11T00:18:34.696Z,6.17
2019-05-11T00:28:33.968Z,5.97
2019-05-11T00:38:33.576Z,5.79
2019-05-11T00:48:34.575Z,5.69
2019-05-11T00:58:35.588Z,5.78
2019-05-11T01:08:34.734Z,5.94
2019-05-11T01:18:33.987Z,6.06
2019-05-11T01:28:33.172Z,6.26
2019-05-11T01:38:32.405Z,6.56
2019-05-11T01:48:31.652Z,6.83
2019-05-11T01:58:32.169Z,7.05
2019-05-11T02:08:31.635Z,7.20
2019-05-11T02:18:31.598Z,7.36
2019-05-11T02:28:31.190Z,7.48
2019-05-11T02:38:30.343Z,7.59
2019-05-11T02:48:30.151Z,7.70
2019-05-11T02:58:30.057Z,7.80
2019-05-11T03:08:29.683Z,7.88
2019-05-11T03:18:30.238Z,7.97
2019-05-11T03:28:30.007Z,8.05
2019-05-11T03:38:30.484Z,8.09
2019-05-11T03:48:29.646Z,8.13
2019-05-11T03:58:28.922Z,8.17
2019-05-11T04:08:28.031Z,8.29
2019-05-11T04:18:28.748Z,8.40
2019-05-11T04:28:31.537Z,8.46
2019-05-11T04:38:31.308Z,8.54
2019-05-11T04:48:30.476Z,8.69
2019-05-11T04:58:30.211Z,8.85
2019-05-11T05:08:31.381Z,8.96
2019-05-11T05:18:31.070Z,8.96
2019-05-11T05:28:45.830Z,8.98
2019-05-11T05:38:45.069Z,9.03
2019-05-11T05:48:48.732Z,9.14
2019-05-11T05:58:49.644Z,9.31
2019-05-11T06:08:50.109Z,9.49
2019-05-11T06:18:50.647Z,9.66
2019-05-11T06:28:50.521Z,9.88
2019-05-11T06:38:51.178Z,10.29
2019-05-11T06:48:50.758Z,10.83
2019-05-11T06:58:50.374Z,11.44
2019-05-11T07:08:51.724Z,11.85
2019-05-11T07:18:52.277Z,12.27
2019-05-11T07:28:52.198Z,12.67
2019-05-11T07:38:52.163Z,13.02
2019-05-11T07:48:51.964Z,13.51
2019-05-11T07:58:51.704Z,14.04
2019-05-11T08:08:52.550Z,14.63
2019-05-11T08:18:52.668Z,15.33
2019-05-11T08:28:52.322Z,16.18
2019-05-11T08:38:52.503Z,16.91
2019-05-11T08:48:52.369Z,17.59
2019-05-11T08:58:55.302Z,18.28
2019-05-11T09:08:54.734Z,18.68
2019-05-11T09:18:58.134Z,19.27
2019-05-11T09:28:58.028Z,19.66
2019-05-11T09:38:58.120Z,19.86
2019-05-11T09:48:59.008Z,19.96
2019-05-11T09:58:58.275Z,20.05
2019-05-11T10:08:58.049Z,20.13
2019-05-11T10:18:59.185Z,20.45
2019-05-11T10:28:58.487Z,20.67
2019-05-11T10:38:58.667Z,20.82
2019-05-11T10:48:58.743Z,21.18
2019-05-11T10:58:58.577Z,21.46
2019-05-11T11:08:57.918Z,21.91
2019-05-11T11:18:58.772Z,21.63
2019-05-11T11:28:58.141Z,21.49
2019-05-11T11:38:58.346Z,21.40
2019-05-11T11:48:57.993Z,21.25
2019-05-11T11:58:57.986Z,21.30
2019-05-11T12:08:55.324Z,21.94
2019-05-11T12:18:57.682Z,22.76
2019-05-11T12:28:57.649Z,23.56
2019-05-11T13:02:21.913Z,24.53
2019-05-11T13:12:23.341Z,24.53
2019-05-11T13:22:24.477Z,27.02
2019-05-11T13:32:24.907Z,28.26
2019-05-11T13:42:27.593Z,30.30
2019-05-11T13:52:24.779Z,29.04
2019-05-11T14:02:24.856Z,27.01
2019-05-11T14:12:24.112Z,25.22
2019-05-11T14:22:23.720Z,23.84
2019-05-11T14:32:22.961Z,26.99
2019-05-11T14:42:22.535Z,34.93
2019-05-11T14:52:22.190Z,36.23
2019-05-11T15:02:39.624Z,31.51
2019-05-11T15:12:39.301Z,27.17
2019-05-11T15:22:39.598Z,24.23
2019-05-11T15:33:00.920Z,22.59
2019-05-11T15:43:00.975Z,21.32
2019-05-11T15:53:01.850Z,20.31
2019-05-11T16:03:01.299Z,19.65
2019-05-11T16:13:01.856Z,19.29
2019-05-11T16:23:01.489Z,19.02
2019-05-11T16:33:01.593Z,18.58
2019-05-11T16:43:01.629Z,18.58
2019-05-11T16:53:01.317Z,16.36
2019-05-11T17:03:01.194Z,14.95
2019-05-11T17:13:01.840Z,13.59
2019-05-11T17:23:01.669Z,12.84
2019-05-11T17:33:01.017Z,12.28
2019-05-11T17:43:01.254Z,11.84
2019-05-11T17:53:02.161Z,11.51
2019-05-11T18:03:01.873Z,11.30
2019-05-11T18:13:04.294Z,11.21
2019-05-11T18:23:03.368Z,11.06
2019-05-11T18:33:03.828Z,10.81
2019-05-11T18:43:04.410Z,10.57
2019-05-11T18:53:04.556Z,10.39
2019-05-11T19:03:05.139Z,10.30
2019-05-11T19:13:05.360Z,10.19
2019-05-11T19:23:05.050Z,10.12
2019-05-11T19:33:05.183Z,10.10
2019-05-11T19:43:07.698Z,10.06
2019-05-11T19:53:05.611Z,10.05
2019-05-11T20:03:06.116Z,9.96
2019-05-11T20:13:07.983Z,9.92
2019-05-11T20:23:07.878Z,9.85
2019-05-11T20:33:08.702Z,9.80
2019-05-11T20:43:07.980Z,9.76
2019-05-11T20:53:13.788Z,9.77
2019-05-11T21:03:14.748Z,9.82
2019-05-11T21:13:15.106Z,9.80
2019-05-11T21:23:15.466Z,9.77
2019-05-11T21:33:15.341Z,9.76
2019-05-11T21:43:15.385Z,9.71
2019-05-11T21:53:18.302Z,9.67
2019-05-11T22:03:15.971Z,9.60
2019-05-11T22:13:18.098Z,9.58
2019-05-11T22:23:17.649Z,9.62
2019-05-11T22:33:17.783Z,9.55
2019-05-11T22:43:18.265Z,9.52
2019-05-11T22:53:18.830Z,9.47
2019-05-11T23:03:23.296Z,9.38
2019-05-11T23:13:24.049Z,9.30
2019-05-11T23:23:24.226Z,9.25
2019-05-11T23:33:24.141Z,9.18
2019-05-11T23:43:23.758Z,9.10
2019-05-11T23:53:23.919Z,9.14
